createdAt,value
2022-07-25T00:00:26.612Z,24.47
2022-07-25T00:02:53.502Z,24.42
2022-07-25T00:05:20.855Z,24.48
2022-07-25T00:07:48.007Z,24.45
2022-07-25T00:10:14.854Z,24.39
2022-07-25T00:12:42.334Z,24.38
2022-07-25T00:15:09.949Z,24.36
2022-07-25T00:17:37.101Z,24.32
2022-07-25T00:20:04.874Z,24.28
2022-07-25T00:22:31.731Z,24.25
2022-07-25T00:24:58.669Z,24.25
2022-07-25T00:27:25.738Z,24.22
2022-07-25T00:29:52.611Z,24.20
2022-07-25T00:32:19.520Z,24.19
2022-07-25T00:34:46.490Z,24.14
2022-07-25T00:37:13.346Z,24.12
2022-07-25T00:39:40.234Z,24.16
2022-07-25T00:42:07.308Z,24.12
2022-07-25T00:44:34.340Z,24.12
2022-07-25T00:47:01.560Z,24.10
2022-07-25T00:49:28.420Z,24.11
2022-07-25T00:51:55.633Z,24.09
2022-07-25T00:54:23.049Z,24.02
2022-07-25T00:56:50.677Z,23.82
2022-07-25T00:59:18.124Z,23.68
2022-07-25T01:01:48.123Z,23.60
2022-07-25T01:04:17.256Z,23.45
2022-07-25T01:06:44.602Z,23.28
2022-07-25T01:09:11.627Z,23.11
2022-07-25T01:11:39.140Z,22.97
2022-07-25T01:14:06.551Z,22.82
2022-07-25T01:16:34.980Z,22.80
2022-07-25T01:19:01.837Z,22.67
2022-07-25T01:21:29.146Z,22.59
2022-07-25T01:23:55.972Z,22.62
2022-07-25T01:26:22.825Z,22.67
2022-07-25T01:28:49.705Z,22.59
2022-07-25T01:31:16.716Z,22.48
2022-07-25T01:33:43.644Z,22.37
2022-07-25T01:36:10.811Z,22.33
2022-07-25T01:38:37.641Z,22.33
2022-07-25T01:41:04.651Z,22.24
2022-07-25T01:43:31.718Z,22.22
2022-07-25T01:45:58.573Z,22.26
2022-07-25T01:48:26.351Z,22.22
2022-07-25T01:50:53.405Z,22.25
2022-07-25T01:53:21.592Z,22.28
2022-07-25T01:55:48.453Z,22.30
2022-07-25T01:58:15.286Z,22.27
2022-07-25T02:00:42.256Z,22.30
2022-07-25T02:03:29.366Z,22.38
2022-07-25T02:06:01.176Z,22.49
2022-07-25T02:08:29.982Z,22.50
2022-07-25T02:10:58.254Z,22.57
2022-07-25T02:13:26.897Z,22.69
2022-07-25T02:15:53.869Z,22.72
2022-07-25T02:18:20.956Z,22.73
2022-07-25T02:20:47.939Z,22.61
2022-07-25T02:23:14.782Z,22.54
2022-07-25T02:25:41.629Z,22.41
2022-07-25T02:28:08.478Z,22.26
2022-07-25T02:30:38.229Z,22.13
2022-07-25T02:33:05.208Z,22.06
2022-07-25T02:35:32.164Z,21.97
2022-07-25T02:37:59.214Z,21.82
2022-07-25T02:40:26.278Z,21.81
2022-07-25T02:42:53.154Z,21.78
2022-07-25T02:45:20.105Z,21.73
2022-07-25T02:47:47.013Z,21.72
2022-07-25T02:50:14.969Z,21.65
2022-07-25T02:52:42.717Z,21.61
2022-07-25T02:55:10.522Z,21.55
2022-07-25T02:57:37.435Z,21.49
2022-07-25T03:00:06.974Z,21.39
2022-07-25T03:02:34.379Z,21.49
2022-07-25T03:05:01.386Z,21.51
2022-07-25T03:07:28.231Z,21.42
2022-07-25T03:09:55.062Z,21.34
2022-07-25T03:12:22.089Z,21.24
2022-07-25T03:14:48.941Z,21.29
2022-07-25T03:17:16.101Z,21.31
2022-07-25T03:19:42.936Z,21.34
2022-07-25T03:22:10.128Z,21.31
2022-07-25T03:24:37.053Z,21.31
2022-07-25T03:27:04.034Z,21.34
2022-07-25T03:29:30.903Z,21.34
2022-07-25T03:31:59.331Z,21.35
2022-07-25T03:34:26.524Z,21.38
2022-07-25T03:36:53.369Z,21.40
2022-07-25T03:39:21.062Z,21.39
2022-07-25T03:41:47.936Z,21.35
2022-07-25T03:44:14.833Z,21.27
2022-07-25T03:46:41.680Z,21.21
2022-07-25T03:49:08.617Z,21.12
2022-07-25T03:51:35.647Z,21.06
2022-07-25T03:54:02.686Z,21.03
2022-07-25T03:56:43.241Z,21.05
2022-07-25T03:59:14.191Z,21.15
2022-07-25T04:01:42.444Z,21.22
2022-07-25T04:04:12.092Z,21.31
2022-07-25T04:06:40.405Z,21.40
2022-07-25T04:09:09.205Z,21.51
2022-07-25T04:11:38.178Z,21.53
2022-07-25T04:14:06.526Z,21.43
2022-07-25T04:16:34.231Z,21.53
2022-07-25T04:19:01.201Z,21.55
2022-07-25T04:21:28.790Z,21.53
2022-07-25T04:23:56.773Z,21.53
2022-07-25T04:26:23.819Z,21.60
2022-07-25T04:28:50.688Z,21.64
2022-07-25T04:31:17.710Z,21.67
2022-07-25T04:33:44.675Z,21.71
2022-07-25T04:36:11.538Z,21.85
2022-07-25T04:38:38.602Z,21.74
2022-07-25T04:41:05.823Z,21.78
2022-07-25T04:43:32.711Z,21.83
2022-07-25T04:45:59.809Z,21.93
2022-07-25T04:48:27.026Z,21.97
2022-07-25T04:50:54.176Z,22.12
2022-07-25T04:53:21.267Z,22.29
2022-07-25T04:55:48.197Z,22.39
2022-07-25T04:58:15.187Z,22.49
2022-07-25T05:00:42.166Z,22.60
2022-07-25T05:03:09.113Z,22.76
2022-07-25T05:05:36.023Z,22.96
2022-07-25T05:08:02.942Z,23.04
2022-07-25T05:10:30.318Z,23.19
2022-07-25T05:12:57.311Z,23.38
2022-07-25T05:15:24.651Z,23.53
2022-07-25T05:17:51.901Z,23.61
2022-07-25T05:20:18.965Z,23.75
2022-07-25T05:22:46.008Z,23.95
2022-07-25T05:25:13.231Z,24.08
2022-07-25T05:27:40.731Z,24.26
2022-07-25T05:30:09.970Z,24.38
2022-07-25T05:32:37.594Z,24.54
2022-07-25T05:35:07.851Z,24.68
2022-07-25T05:37:35.789Z,24.84
2022-07-25T05:40:03.858Z,24.91
2022-07-25T05:42:30.754Z,25.01
2022-07-25T05:44:57.646Z,25.06
2022-07-25T05:47:24.475Z,25.16
2022-07-25T05:49:51.311Z,25.23
2022-07-25T05:52:18.149Z,25.41
2022-07-25T05:54:44.974Z,25.53
2022-07-25T05:57:11.882Z,25.59
2022-07-25T05:59:38.748Z,25.81
2022-07-25T06:02:05.730Z,25.94
2022-07-25T06:04:33.381Z,26.10
2022-07-25T06:07:00.215Z,26.26
2022-07-25T06:09:27.462Z,26.45
2022-07-25T06:12:00.398Z,26.72
2022-07-25T06:14:28.961Z,27.17
2022-07-25T06:16:57.003Z,27.49
2022-07-25T06:19:24.042Z,27.73
2022-07-25T06:21:50.906Z,27.78
2022-07-25T06:24:17.770Z,27.90
2022-07-25T06:26:44.707Z,28.23
2022-07-25T06:29:12.153Z,28.24
2022-07-25T06:31:39.167Z,28.12
2022-07-25T06:34:06.457Z,28.32
2022-07-25T06:36:33.922Z,28.47
2022-07-25T06:39:01.420Z,28.63
2022-07-25T06:41:28.367Z,28.39
2022-07-25T06:43:55.251Z,28.45
2022-07-25T06:46:22.140Z,29.14
2022-07-25T06:48:49.075Z,29.59
2022-07-25T06:51:15.981Z,29.72
2022-07-25T06:53:42.904Z,29.73
2022-07-25T06:56:12.178Z,29.70
2022-07-25T06:58:41.286Z,29.44
2022-07-25T07:01:08.156Z,30.13
2022-07-25T07:03:38.324Z,30.53
2022-07-25T07:06:09.250Z,30.28
2022-07-25T07:08:36.855Z,29.85
2022-07-25T07:11:04.881Z,30.32
2022-07-25T07:13:31.835Z,30.78
2022-07-25T07:15:58.840Z,31.13
2022-07-25T07:18:26.021Z,31.54
2022-07-25T07:20:53.541Z,31.33
2022-07-25T07:23:20.389Z,31.43
2022-07-25T07:25:47.681Z,31.73
2022-07-25T07:28:15.560Z,31.89
2022-07-25T07:33:30.037Z,32.52
2022-07-25T07:35:57.609Z,32.24
2022-07-25T07:38:25.387Z,32.37
2022-07-25T07:40:53.672Z,32.84
2022-07-25T07:43:23.043Z,33.03
2022-07-25T07:45:52.018Z,33.10
2022-07-25T07:48:18.921Z,32.73
2022-07-25T07:50:46.011Z,33.11
2022-07-25T07:53:12.914Z,33.25
2022-07-25T07:55:45.763Z,32.28
2022-07-25T07:58:16.449Z,32.92
2022-07-25T08:00:45.882Z,33.42
2022-07-25T08:03:13.329Z,33.86
2022-07-25T08:05:44.432Z,34.02
2022-07-25T08:08:13.950Z,34.14
2022-07-25T08:10:44.934Z,31.43
2022-07-25T08:13:18.182Z,30.96
2022-07-25T08:15:48.516Z,32.41
2022-07-25T08:18:17.468Z,33.08
2022-07-25T08:20:49.817Z,33.30
2022-07-25T08:23:18.009Z,34.05
2022-07-25T08:25:46.443Z,32.09
2022-07-25T08:28:14.798Z,32.68
2022-07-25T08:30:42.385Z,33.29
2022-07-25T08:33:13.356Z,33.74
2022-07-25T08:35:41.795Z,33.88
2022-07-25T08:38:11.575Z,32.75
2022-07-25T08:40:38.794Z,33.70
2022-07-25T08:43:06.070Z,34.40
2022-07-25T08:45:33.671Z,34.13
2022-07-25T08:48:00.557Z,34.92
2022-07-25T08:50:29.433Z,34.97
2022-07-25T08:53:22.999Z,35.63
2022-07-25T08:55:45.628Z,35.78
2022-07-25T08:58:14.750Z,35.83
2022-07-25T09:00:41.927Z,35.25
2022-07-25T09:03:09.066Z,33.92
2022-07-25T09:05:37.345Z,34.60
2022-07-25T09:08:14.046Z,34.89
2022-07-25T09:10:48.209Z,35.75
2022-07-25T09:13:17.272Z,35.55
2022-07-25T09:15:47.928Z,34.84
2022-07-25T09:18:23.133Z,35.43
2022-07-25T09:20:59.094Z,35.54
2022-07-25T09:23:28.950Z,34.87
2022-07-25T09:26:22.094Z,34.69
2022-07-25T09:28:51.333Z,34.03
2022-07-25T09:31:21.496Z,34.39
2022-07-25T09:33:56.412Z,35.04
2022-07-25T09:36:24.150Z,35.50
2022-07-25T09:39:01.712Z,35.33
2022-07-25T09:41:41.736Z,36.48
2022-07-25T09:44:22.952Z,35.24
2022-07-25T09:46:50.556Z,36.15
2022-07-25T09:49:17.565Z,36.98
2022-07-25T09:51:44.746Z,37.14
2022-07-25T09:54:11.784Z,37.24
2022-07-25T09:56:38.658Z,37.65
2022-07-25T09:59:06.830Z,38.14
2022-07-25T10:01:49.435Z,38.04
2022-07-25T10:04:23.247Z,38.26
2022-07-25T10:06:59.748Z,37.96
2022-07-25T10:09:26.760Z,37.28
2022-07-25T10:12:15.162Z,37.93
2022-07-25T10:14:42.457Z,38.27
2022-07-25T10:17:09.690Z,38.63
2022-07-25T10:19:52.014Z,39.35
2022-07-25T10:22:34.365Z,38.49
2022-07-25T10:25:19.311Z,38.95
2022-07-25T10:28:01.164Z,39.41
2022-07-25T10:30:35.500Z,39.48
2022-07-25T10:33:24.709Z,39.60
2022-07-25T10:35:51.611Z,37.91
2022-07-25T10:38:25.304Z,38.68
2022-07-25T10:40:52.714Z,38.80
2022-07-25T10:43:22.328Z,39.62
2022-07-25T10:45:51.950Z,39.65
2022-07-25T10:48:32.852Z,40.12
2022-07-25T10:51:08.689Z,40.52
2022-07-25T10:53:47.628Z,40.36
2022-07-25T10:56:27.926Z,40.50
2022-07-25T10:59:00.552Z,40.82
2022-07-25T11:01:34.724Z,40.49
2022-07-25T11:04:05.899Z,40.00
2022-07-25T11:06:43.048Z,39.46
2022-07-25T11:09:27.741Z,39.79
2022-07-25T11:11:59.695Z,40.58
2022-07-25T11:14:35.217Z,41.46
2022-07-25T11:17:22.233Z,40.68
2022-07-25T11:20:09.106Z,41.48
2022-07-25T11:22:36.060Z,40.55
2022-07-25T11:25:12.169Z,40.81
2022-07-25T11:27:39.013Z,41.02
2022-07-25T11:30:19.860Z,41.67
2022-07-25T11:32:54.025Z,41.02
2022-07-25T11:35:25.053Z,40.13
2022-07-25T11:37:53.499Z,39.41
2022-07-25T11:40:22.496Z,39.20
2022-07-25T11:42:53.578Z,39.98
2022-07-25T11:45:24.037Z,40.61
2022-07-25T11:48:14.597Z,40.60
2022-07-25T11:50:44.729Z,41.43
2022-07-25T11:53:18.314Z,42.09
2022-07-25T11:55:45.289Z,42.10
2022-07-25T11:58:14.241Z,41.86
2022-07-25T12:00:44.773Z,41.45
2022-07-25T12:03:21.117Z,41.18
2022-07-25T12:05:49.953Z,41.12
2022-07-25T12:08:20.452Z,42.12
2022-07-25T12:10:49.197Z,42.50
2022-07-25T12:13:30.728Z,42.53
2022-07-25T12:15:59.333Z,42.82
2022-07-25T12:18:28.002Z,43.29
2022-07-25T12:20:55.186Z,43.17
2022-07-25T12:23:22.225Z,42.93
2022-07-25T12:25:49.686Z,42.82
2022-07-25T12:28:16.655Z,43.00
2022-07-25T12:30:45.762Z,43.39
2022-07-25T12:33:13.398Z,43.59
2022-07-25T12:35:42.554Z,44.18
2022-07-25T12:38:11.009Z,44.00
2022-07-25T12:40:38.478Z,43.59
2022-07-25T12:43:05.888Z,44.02
2022-07-25T12:45:33.055Z,43.90
2022-07-25T12:48:00.005Z,43.44
2022-07-25T12:50:26.989Z,43.45
2022-07-25T12:52:54.259Z,43.17
2022-07-25T12:55:21.621Z,43.59
2022-07-25T12:57:49.452Z,43.82
2022-07-25T13:00:20.384Z,42.46
2022-07-25T13:02:49.143Z,41.90
2022-07-25T13:05:16.195Z,42.33
2022-07-25T13:07:43.210Z,41.45
2022-07-25T13:10:12.549Z,41.65
2022-07-25T13:12:39.413Z,41.85
2022-07-25T13:15:07.372Z,41.06
2022-07-25T13:17:34.734Z,41.50
2022-07-25T13:20:01.750Z,42.13
2022-07-25T13:22:28.898Z,42.05
2022-07-25T13:24:55.986Z,41.83
2022-07-25T13:27:23.618Z,42.59
2022-07-25T13:29:54.779Z,43.14
2022-07-25T13:32:22.678Z,43.15
2022-07-25T13:34:50.191Z,43.11
2022-07-25T13:37:17.207Z,42.30
2022-07-25T13:39:44.165Z,43.43
2022-07-25T13:42:11.154Z,44.19
2022-07-25T13:44:38.039Z,43.90
2022-07-25T13:47:05.220Z,44.13
2022-07-25T13:49:32.604Z,44.45
2022-07-25T13:51:59.482Z,42.78
2022-07-25T13:54:26.359Z,41.53
2022-07-25T13:56:53.264Z,42.36
2022-07-25T13:59:21.636Z,42.13
2022-07-25T14:01:50.136Z,42.74
2022-07-25T14:04:17.320Z,43.60
2022-07-25T14:06:44.306Z,43.35
2022-07-25T14:09:11.504Z,43.00
2022-07-25T14:11:38.582Z,42.11
2022-07-25T14:14:05.458Z,43.35
2022-07-25T14:16:33.970Z,41.93
2022-07-25T14:19:02.209Z,42.70
2022-07-25T14:21:29.979Z,41.93
2022-07-25T14:23:56.869Z,43.04
2022-07-25T14:26:23.725Z,42.77
2022-07-25T14:28:50.760Z,42.35
2022-07-25T14:31:17.667Z,41.20
2022-07-25T14:33:44.558Z,40.85
2022-07-25T14:36:11.478Z,41.91
2022-07-25T14:38:38.964Z,42.37
2022-07-25T14:41:10.716Z,42.08
2022-07-25T14:43:40.763Z,41.98
2022-07-25T14:46:08.289Z,42.40
2022-07-25T14:48:38.917Z,42.69
2022-07-25T14:51:07.072Z,42.34
2022-07-25T14:53:37.314Z,43.26
2022-07-25T14:56:06.030Z,41.92
2022-07-25T14:58:33.697Z,42.88
2022-07-25T15:01:01.036Z,42.37
2022-07-25T15:03:28.051Z,42.61
2022-07-25T15:05:54.984Z,43.64
2022-07-25T15:08:22.201Z,43.91
2022-07-25T15:10:49.351Z,43.49
2022-07-25T15:13:32.356Z,43.99
2022-07-25T15:16:00.630Z,43.90
2022-07-25T15:18:28.063Z,43.63
2022-07-25T15:20:55.328Z,42.71
2022-07-25T15:23:24.805Z,43.20
2022-07-25T15:26:02.741Z,43.04
2022-07-25T15:28:35.629Z,42.81
2022-07-25T15:31:03.181Z,42.51
2022-07-25T15:33:30.165Z,41.87
2022-07-25T15:35:57.357Z,43.08
2022-07-25T15:38:24.216Z,43.55
2022-07-25T15:40:51.380Z,42.49
2022-07-25T15:43:18.306Z,43.10
2022-07-25T15:45:46.573Z,43.83
2022-07-25T15:48:16.243Z,44.45
2022-07-25T15:50:46.750Z,44.09
2022-07-25T15:53:14.062Z,44.61
2022-07-25T15:55:42.115Z,45.01
2022-07-25T15:58:10.972Z,42.88
2022-07-25T16:00:39.782Z,41.33
2022-07-25T16:03:07.113Z,40.79
2022-07-25T16:05:34.700Z,40.12
2022-07-25T16:08:01.979Z,40.21
2022-07-25T16:10:31.563Z,39.86
2022-07-25T16:12:59.001Z,40.02
2022-07-25T16:15:26.451Z,40.02
2022-07-25T16:18:00.213Z,38.97
2022-07-25T16:20:31.693Z,38.81
2022-07-25T16:22:59.625Z,38.87
2022-07-25T16:25:29.326Z,38.80
2022-07-25T16:27:57.064Z,39.13
2022-07-25T16:30:24.690Z,38.59
2022-07-25T16:32:51.763Z,38.88
2022-07-25T16:35:18.788Z,38.72
2022-07-25T16:37:45.955Z,38.51
2022-07-25T16:40:14.012Z,38.50
2022-07-25T16:42:40.870Z,38.01
2022-07-25T16:45:08.654Z,38.20
2022-07-25T16:47:36.383Z,38.14
2022-07-25T16:50:03.554Z,38.21
2022-07-25T16:52:30.420Z,38.14
2022-07-25T16:54:57.261Z,38.14
2022-07-25T16:57:25.262Z,37.69
2022-07-25T16:59:53.429Z,36.91
2022-07-25T17:02:29.229Z,37.68
2022-07-25T17:04:57.120Z,37.56
2022-07-25T17:07:24.765Z,37.85
2022-07-25T17:09:52.117Z,37.83
2022-07-25T17:12:19.258Z,37.78
2022-07-25T17:14:46.309Z,37.77
2022-07-25T17:17:13.281Z,37.57
2022-07-25T17:19:40.752Z,37.39
2022-07-25T17:22:09.654Z,37.14
2022-07-25T17:24:37.837Z,37.01
2022-07-25T17:27:06.177Z,36.96
2022-07-25T17:29:33.385Z,36.78
2022-07-25T17:32:00.343Z,36.47
2022-07-25T17:34:27.338Z,36.62
2022-07-25T17:36:55.051Z,36.26
2022-07-25T17:39:22.144Z,35.85
2022-07-25T17:41:52.001Z,35.21
2022-07-25T17:44:21.546Z,34.92
2022-07-25T17:46:50.236Z,34.60
2022-07-25T17:49:17.448Z,33.90
2022-07-25T17:51:46.056Z,33.78
2022-07-25T17:54:12.931Z,33.68
2022-07-25T17:56:40.205Z,33.06
2022-07-25T17:59:08.672Z,33.00
2022-07-25T18:01:35.983Z,33.04
2022-07-25T18:04:03.801Z,32.97
2022-07-25T18:06:30.989Z,32.93
2022-07-25T18:08:58.507Z,33.09
2022-07-25T18:11:25.526Z,33.10
2022-07-25T18:13:52.384Z,32.99
2022-07-25T18:16:19.371Z,32.75
2022-07-25T18:18:46.504Z,32.51
2022-07-25T18:21:13.338Z,32.51
2022-07-25T18:23:40.222Z,32.47
2022-07-25T18:26:07.212Z,32.47
2022-07-25T18:28:34.080Z,32.47
2022-07-25T18:31:01.175Z,32.40
2022-07-25T18:33:28.480Z,32.41
2022-07-25T18:35:55.405Z,32.15
2022-07-25T18:38:22.274Z,31.99
2022-07-25T18:40:51.645Z,31.90
2022-07-25T18:43:24.611Z,31.97
2022-07-25T18:45:53.745Z,31.87
2022-07-25T18:48:20.644Z,31.85
2022-07-25T18:50:47.565Z,31.84
2022-07-25T18:53:14.442Z,31.78
2022-07-25T18:55:42.062Z,31.73
2022-07-25T18:58:09.023Z,31.61
2022-07-25T19:00:35.953Z,31.55
2022-07-25T19:03:02.908Z,31.33
2022-07-25T19:05:29.876Z,31.30
2022-07-25T19:07:59.686Z,31.21
2022-07-25T19:10:26.606Z,30.97
2022-07-25T19:12:53.450Z,31.00
2022-07-25T19:15:20.410Z,30.72
2022-07-25T19:17:47.355Z,30.72
2022-07-25T19:20:14.617Z,30.67
2022-07-25T19:22:41.521Z,30.57
2022-07-25T19:25:10.856Z,30.38
2022-07-25T19:27:39.362Z,30.43
2022-07-25T19:30:13.919Z,30.27
2022-07-25T19:32:44.996Z,30.23
2022-07-25T19:35:11.822Z,30.12
2022-07-25T19:37:38.722Z,29.98
2022-07-25T19:40:06.593Z,29.87
2022-07-25T19:42:34.881Z,29.84
2022-07-25T19:45:01.824Z,29.77
2022-07-25T19:47:29.078Z,29.75
2022-07-25T19:49:56.007Z,29.80
2022-07-25T19:52:23.123Z,29.66
2022-07-25T19:54:50.054Z,29.59
2022-07-25T19:57:17.034Z,29.62
2022-07-25T19:59:43.945Z,29.53
2022-07-25T20:02:11.105Z,29.38
2022-07-25T20:04:38.064Z,29.33
2022-07-25T20:07:04.960Z,29.20
2022-07-25T20:09:33.577Z,29.23
2022-07-25T20:12:03.286Z,29.22
2022-07-25T20:14:30.394Z,29.21
2022-07-25T20:16:57.931Z,29.21
2022-07-25T20:19:24.952Z,29.20
2022-07-25T20:21:52.309Z,29.23
2022-07-25T20:24:21.675Z,29.21
2022-07-25T20:26:49.377Z,29.06
2022-07-25T20:29:17.842Z,29.06
2022-07-25T20:31:45.051Z,28.90
2022-07-25T20:34:15.477Z,28.86
2022-07-25T20:36:42.824Z,28.86
2022-07-25T20:39:10.258Z,28.79
2022-07-25T20:41:38.299Z,28.68
2022-07-25T20:44:05.709Z,28.54
2022-07-25T20:46:35.874Z,28.44
2022-07-25T20:49:09.000Z,28.49
2022-07-25T20:51:37.842Z,28.24
2022-07-25T20:54:05.184Z,27.79
2022-07-25T20:56:32.473Z,28.11
2022-07-25T20:58:59.700Z,27.89
2022-07-25T21:01:26.642Z,28.33
2022-07-25T21:03:53.585Z,28.18
2022-07-25T21:06:20.437Z,28.61
2022-07-25T21:08:54.273Z,28.70
2022-07-25T21:11:21.835Z,29.01
2022-07-25T21:13:48.794Z,29.26
2022-07-25T21:16:15.936Z,29.23
2022-07-25T21:18:42.850Z,28.28
2022-07-25T21:21:12.390Z,26.50
2022-07-25T21:23:41.105Z,24.45
2022-07-25T21:26:07.973Z,24.48
2022-07-25T21:28:34.840Z,23.97
2022-07-25T21:31:01.801Z,23.60
2022-07-25T21:33:28.778Z,22.88
2022-07-25T21:35:55.681Z,22.94
2022-07-25T21:38:27.495Z,22.68
2022-07-25T21:40:57.454Z,22.61
2022-07-25T21:43:24.695Z,22.43
2022-07-25T21:45:51.945Z,22.87
2022-07-25T21:48:21.934Z,23.14
2022-07-25T21:50:49.386Z,23.34
2022-07-25T21:53:17.430Z,23.10
2022-07-25T21:55:44.260Z,23.45
2022-07-25T21:58:11.097Z,23.31
2022-07-25T22:00:44.632Z,23.48
2022-07-25T22:03:12.819Z,23.52
2022-07-25T22:05:39.731Z,23.65
2022-07-25T22:08:06.745Z,23.82
2022-07-25T22:10:33.654Z,23.85
2022-07-25T22:13:00.648Z,23.60
2022-07-25T22:15:27.545Z,23.70
2022-07-25T22:17:54.694Z,23.56
2022-07-25T22:20:21.566Z,23.69
2022-07-25T22:22:49.574Z,23.72
2022-07-25T22:25:17.098Z,23.76
2022-07-25T22:27:44.212Z,23.69
2022-07-25T22:30:16.466Z,23.48
2022-07-25T22:32:47.752Z,23.40
2022-07-25T22:35:15.190Z,23.36
2022-07-25T22:37:43.857Z,23.47
2022-07-25T22:40:11.771Z,23.32
2022-07-25T22:42:38.614Z,23.25
2022-07-25T22:45:06.237Z,23.12
2022-07-25T22:47:33.090Z,23.35
2022-07-25T22:49:59.932Z,23.45
2022-07-25T22:52:26.754Z,23.33
2022-07-25T22:54:53.716Z,23.39
2022-07-25T22:57:20.643Z,23.47
2022-07-25T22:59:49.471Z,23.62
2022-07-25T23:02:16.524Z,23.93
2022-07-25T23:04:43.341Z,23.90
2022-07-25T23:07:10.286Z,23.73
2022-07-25T23:09:37.128Z,23.44
2022-07-25T23:12:05.203Z,23.46
2022-07-25T23:14:32.460Z,23.15
2022-07-25T23:17:17.767Z,23.36
2022-07-25T23:19:50.960Z,23.30
2022-07-25T23:22:19.949Z,23.42
2022-07-25T23:24:46.909Z,23.23
2022-07-25T23:27:14.093Z,23.44
2022-07-25T23:29:41.334Z,23.33
2022-07-25T23:32:08.462Z,23.06
2022-07-25T23:34:36.353Z,23.10
2022-07-25T23:37:03.765Z,23.27
2022-07-25T23:39:31.772Z,23.73
2022-07-25T23:41:59.910Z,23.75
2022-07-25T23:44:27.110Z,23.75
2022-07-25T23:46:56.896Z,23.41
2022-07-25T23:49:24.376Z,23.42
2022-07-25T23:51:51.576Z,23.08
2022-07-25T23:54:18.586Z,23.32
2022-07-25T23:56:45.456Z,23.51
2022-07-25T23:59:12.434Z,23.39
